Time;durP1;ratioP1;P1;durP2;ratioP2;P2;SDS_P1;SDS_P2;PMS_P1;PMS_P2;Temp;Humidity;BMP_temperature;BMP_pressure;BME280_temperature;BME280_humidity;BME280_pressure;Samples;Min_cycle;Max_cycle;Signal;HPM_P1;HPM_P2
2021/06/04 00:00:10;;;;;;;28.30;25.25;;;22.80;99.90;;;;;;5016189;28;20088;-71
2021/06/04 00:02:36;;;;;;;29.13;22.85;;;22.80;99.90;;;;;;5017498;28;20101;-71
2021/06/04 00:05:02;;;;;;;29.50;23.35;;;22.80;99.90;;;;;;5014632;28;20121;-71
2021/06/04 00:07:27;;;;;;;24.63;21.75;;;22.80;99.90;;;;;;5009453;28;20053;-71
2021/06/04 00:09:53;;;;;;;23.38;20.15;;;22.80;99.90;;;;;;5013029;28;20030;-71
2021/06/04 00:12:19;;;;;;;27.10;22.27;;;22.70;99.90;;;;;;5015501;28;20097;-71
2021/06/04 00:14:44;;;;;;;26.13;20.52;;;22.70;99.90;;;;;;5017514;28;20022;-71
2021/06/04 00:17:15;;;;;;;23.35;20.52;;;22.70;99.90;;;;;;5022799;28;20030;-71
2021/06/04 00:19:41;;;;;;;23.42;19.90;;;22.70;99.90;;;;;;5015888;28;20088;-71
2021/06/04 00:22:14;;;;;;;21.98;19.38;;;22.70;99.90;;;;;;5014631;28;20026;-74
2021/06/04 00:24:42;;;;;;;24.02;19.02;;;22.70;99.90;;;;;;5020395;28;20056;-72
2021/06/04 00:27:09;;;;;;;24.83;20.58;;;22.70;99.90;;;;;;5011793;28;20025;-74
2021/06/04 00:29:35;;;;;;;25.30;20.48;;;22.60;99.90;;;;;;5014742;28;20095;-72
2021/06/04 00:32:01;;;;;;;27.00;20.90;;;22.50;99.90;;;;;;5017123;28;20022;-71
2021/06/04 00:34:27;;;;;;;27.95;21.10;;;22.60;99.90;;;;;;5020122;28;20424;-74
2021/06/04 00:36:53;;;;;;;25.50;20.45;;;22.50;99.90;;;;;;5011174;28;20040;-72
2021/06/04 00:39:22;;;;;;;26.65;21.50;;;22.50;99.90;;;;;;5012855;28;20059;-73
2021/06/04 00:41:56;;;;;;;25.30;20.50;;;22.50;99.90;;;;;;5017439;28;20025;-76
2021/06/04 00:44:22;;;;;;;26.65;20.58;;;22.50;99.90;;;;;;5011137;28;20029;-78
2021/06/04 00:46:49;;;;;;;28.13;22.23;;;22.50;99.90;;;;;;5014349;28;20032;-80
2021/06/04 00:49:15;;;;;;;29.73;22.80;;;22.50;99.90;;;;;;5011696;28;20152;-76
2021/06/04 00:51:47;;;;;;;26.80;22.48;;;22.50;99.90;;;;;;5013669;28;20105;-76
2021/06/04 00:54:14;;;;;;;26.03;20.73;;;22.50;99.90;;;;;;5013189;28;21055;-81
2021/06/04 00:56:41;;;;;;;30.27;22.38;;;22.50;99.90;;;;;;5012006;28;20291;-81
2021/06/04 00:59:09;;;;;;;28.83;22.95;;;22.40;99.90;;;;;;5017490;28;20037;-77
2021/06/04 01:01:35;;;;;;;28.90;22.95;;;22.40;99.90;;;;;;5020846;28;20104;-81
2021/06/04 01:04:23;;;;;;;25.67;22.48;;;22.30;99.90;;;;;;5013399;28;20032;-80
2021/06/04 01:07:04;;;;;;;29.27;22.70;;;22.30;99.90;;;;;;5017496;28;20018;-81
2021/06/04 01:09:44;;;;;;;30.55;22.80;;;22.30;99.90;;;;;;5016323;28;20037;-72
2021/06/04 01:12:19;;;;;;;28.55;22.92;;;22.20;99.90;;;;;;5015826;28;20033;-82
2021/06/04 01:15:06;;;;;;;27.98;21.90;;;22.10;99.90;;;;;;5015959;28;20040;-79
2021/06/04 01:17:45;;;;;;;30.58;24.88;;;22.10;99.90;;;;;;5016223;28;20030;-82
2021/06/04 01:20:23;;;;;;;31.00;23.95;;;22.10;99.90;;;;;;5016706;28;20026;-77
2021/06/04 01:22:52;;;;;;;27.17;22.27;;;22.10;99.90;;;;;;5016558;28;20483;-81
2021/06/04 01:25:29;;;;;;;26.20;22.75;;;22.00;99.90;;;;;;5017964;28;20092;-76
2021/06/04 01:27:58;;;;;;;28.15;23.55;;;22.00;99.90;;;;;;5010822;28;20415;-77
2021/06/04 01:30:44;;;;;;;28.33;24.73;;;22.00;99.90;;;;;;5016311;28;20083;-74
2021/06/04 01:33:18;;;;;;;30.55;24.90;;;21.90;99.90;;;;;;5019586;28;20343;-77
2021/06/04 01:35:47;;;;;;;30.77;24.08;;;21.90;99.90;;;;;;5017994;28;20506;-77
2021/06/04 01:38:16;;;;;;;30.08;24.88;;;21.90;99.90;;;;;;5019690;28;20656;-75
2021/06/04 01:40:48;;;;;;;30.27;22.85;;;21.80;99.90;;;;;;5017414;28;20517;-77
2021/06/04 01:43:22;;;;;;;27.42;23.10;;;21.80;99.90;;;;;;5016420;28;20425;-80
2021/06/04 01:46:00;;;;;;;30.38;24.70;;;21.80;99.90;;;;;;5012814;28;20054;-79
2021/06/04 01:48:29;;;;;;;33.17;24.40;;;21.70;99.90;;;;;;5014211;28;20022;-80
2021/06/04 01:51:02;;;;;;;28.63;22.77;;;21.80;99.90;;;;;;5014881;28;20117;-71
2021/06/04 01:53:37;;;;;;;26.63;22.63;;;21.70;99.90;;;;;;5010627;28;20029;-80
2021/06/04 01:56:16;;;;;;;31.02;23.40;;;21.60;99.90;;;;;;5017276;28;20033;-80
2021/06/04 01:58:48;;;;;;;30.67;25.15;;;21.60;99.90;;;;;;5014205;28;20084;-80
2021/06/04 02:01:22;;;;;;;30.92;25.38;;;21.60;99.90;;;;;;5016034;28;20039;-79
2021/06/04 02:03:49;;;;;;;29.98;23.60;;;21.60;99.90;;;;;;5017616;28;20428;-77
2021/06/04 02:06:14;;;;;;;28.30;23.55;;;21.50;99.90;;;;;;5014573;28;20501;-79
2021/06/04 02:08:53;;;;;;;31.10;25.50;;;21.50;99.90;;;;;;5017009;28;20040;-80
2021/06/04 02:11:22;;;;;;;30.70;24.83;;;21.50;99.90;;;;;;5021830;28;20028;-81
2021/06/04 02:13:50;;;;;;;30.27;25.77;;;21.50;99.90;;;;;;5018521;28;20030;-78
2021/06/04 02:16:43;;;;;;;35.25;27.60;;;21.50;99.90;;;;;;5015479;28;20087;-80
2021/06/04 02:19:20;;;;;;;32.35;26.58;;;21.40;99.90;;;;;;5023902;28;20026;-80
2021/06/04 02:21:59;;;;;;;31.00;24.67;;;21.40;99.90;;;;;;5023292;28;20018;-75
2021/06/04 02:24:48;;;;;;;38.00;26.45;;;21.40;99.90;;;;;;5019727;28;20498;-77
2021/06/04 02:27:25;;;;;;;32.72;24.83;;;21.40;99.90;;;;;;5019661;28;20113;-80
2021/06/04 02:29:57;;;;;;;35.53;28.17;;;21.30;99.90;;;;;;5016592;28;20028;-78
2021/06/04 02:32:29;;;;;;;44.30;28.20;;;21.30;99.90;;;;;;5020890;28;20021;-76
2021/06/04 02:35:01;;;;;;;35.35;26.55;;;21.20;99.90;;;;;;5018093;28;20108;-74
2021/06/04 02:37:35;;;;;;;35.60;30.05;;;21.30;99.90;;;;;;5015125;28;20018;-79
2021/06/04 02:40:13;;;;;;;38.83;31.15;;;21.20;99.90;;;;;;5017039;28;20372;-77
2021/06/04 02:42:49;;;;;;;35.72;28.45;;;21.20;99.90;;;;;;5020115;28;20430;-76
2021/06/04 02:45:21;;;;;;;39.17;29.83;;;21.20;99.90;;;;;;5014305;28;21228;-72
2021/06/04 02:47:52;;;;;;;45.97;34.05;;;21.10;99.90;;;;;;5014373;28;20494;-79
2021/06/04 02:50:35;;;;;;;41.22;30.13;;;21.10;99.90;;;;;;5021477;28;20026;-80
2021/06/04 02:53:22;;;;;;;38.58;31.60;;;21.10;99.90;;;;;;5016428;28;20021;-73
2021/06/04 02:56:02;;;;;;;38.78;29.88;;;21.00;99.90;;;;;;5019031;28;20095;-78
2021/06/04 02:58:28;;;;;;;34.75;29.33;;;21.00;99.90;;;;;;5023603;28;20033;-79
2021/06/04 03:00:54;;;;;;;37.78;29.27;;;21.00;99.90;;;;;;5020469;28;20034;-77
2021/06/04 03:03:20;;;;;;;35.03;27.67;;;21.00;99.90;;;;;;5019174;28;20104;-76
2021/06/04 03:05:45;;;;;;;33.72;28.10;;;21.00;99.90;;;;;;5022384;28;20064;-76
2021/06/04 03:08:11;;;;;;;36.53;28.45;;;21.00;99.90;;;;;;5018510;28;20380;-75
2021/06/04 03:10:41;;;;;;;35.95;27.67;;;21.00;99.90;;;;;;5017820;28;20021;-74
2021/06/04 03:13:17;;;;;;;34.83;26.70;;;20.90;99.90;;;;;;5018249;28;20030;-79
2021/06/04 03:15:47;;;;;;;34.78;29.35;;;20.90;99.90;;;;;;5022660;28;20200;-79
2021/06/04 03:18:18;;;;;;;38.80;29.08;;;20.90;99.90;;;;;;5022549;28;20117;-79
2021/06/04 03:20:45;;;;;;;36.65;28.00;;;20.90;99.90;;;;;;5022073;28;20124;-78
2021/06/04 03:23:15;;;;;;;36.55;29.15;;;20.90;99.90;;;;;;5019177;28;20025;-74
2021/06/04 03:25:44;;;;;;;38.90;31.08;;;20.90;99.90;;;;;;5017586;28;20068;-80
2021/06/04 03:28:13;;;;;;;38.72;28.27;;;20.90;99.90;;;;;;5016639;28;20545;-78
2021/06/04 03:30:41;;;;;;;34.13;27.75;;;20.90;99.90;;;;;;5024641;28;20026;-79
2021/06/04 03:33:10;;;;;;;37.72;29.95;;;20.90;99.90;;;;;;5016159;28;20028;-76
2021/06/04 03:35:36;;;;;;;37.72;30.83;;;20.90;99.90;;;;;;5025458;28;20036;-77
2021/06/04 03:38:02;;;;;;;40.08;29.92;;;20.90;99.90;;;;;;5018233;28;20399;-75
2021/06/04 03:40:30;;;;;;;39.80;28.25;;;20.80;99.90;;;;;;5022372;28;20117;-77
2021/06/04 03:42:58;;;;;;;37.75;29.85;;;20.80;99.90;;;;;;5019329;28;20105;-73
2021/06/04 03:45:35;;;;;;;37.40;29.70;;;20.80;99.90;;;;;;5020510;28;20024;-80
2021/06/04 03:48:01;;;;;;;41.05;32.88;;;20.70;99.90;;;;;;5015016;28;20112;-78
2021/06/04 03:50:27;;;;;;;39.10;31.92;;;20.70;99.90;;;;;;5018458;28;20363;-79
2021/06/04 03:52:53;;;;;;;39.75;30.17;;;20.70;99.90;;;;;;5024995;28;20037;-79
2021/06/04 03:55:22;;;;;;;35.42;27.65;;;20.60;99.90;;;;;;5023293;28;20022;-80
2021/06/04 03:57:49;;;;;;;34.78;26.15;;;20.60;99.90;;;;;;5020965;28;20072;-79
2021/06/04 04:00:22;;;;;;;39.00;29.52;;;20.70;99.90;;;;;;5023501;28;20756;-79
2021/06/04 04:02:48;;;;;;;35.35;29.80;;;20.70;99.90;;;;;;5021848;28;20021;-79
2021/06/04 04:05:15;;;;;;;44.08;31.25;;;20.60;99.90;;;;;;5020495;28;20037;-79
2021/06/04 04:07:41;;;;;;;35.53;30.67;;;20.50;99.90;;;;;;5013563;28;20026;-81
2021/06/04 04:10:09;;;;;;;34.97;27.67;;;20.50;99.90;;;;;;5018384;28;20025;-79
2021/06/04 04:12:36;;;;;;;37.33;27.90;;;20.60;99.90;;;;;;5011899;28;20030;-80
2021/06/04 04:15:04;;;;;;;38.95;29.98;;;20.60;99.90;;;;;;5015876;28;20037;-79
2021/06/04 04:17:29;;;;;;;37.22;28.98;;;20.60;99.90;;;;;;5016790;28;20037;-80
2021/06/04 04:19:56;;;;;;;37.78;30.48;;;20.60;99.90;;;;;;5019660;28;20042;-76
2021/06/04 04:22:24;;;;;;;39.08;32.28;;;20.60;99.90;;;;;;5016707;28;20021;-80
2021/06/04 04:24:49;;;;;;;32.80;28.17;;;20.50;99.90;;;;;;5012361;28;20054;-78
2021/06/04 04:27:15;;;;;;;33.15;26.80;;;20.60;99.90;;;;;;5016666;28;20133;-80
2021/06/04 04:29:41;;;;;;;34.97;27.25;;;20.70;99.90;;;;;;5020990;28;20034;-79
2021/06/04 04:32:13;;;;;;;33.85;27.67;;;20.70;99.90;;;;;;5014121;28;20036;-80
2021/06/04 04:34:42;;;;;;;36.80;28.95;;;20.70;99.90;;;;;;5019917;28;20460;-80
2021/06/04 04:37:07;;;;;;;34.58;27.10;;;20.70;99.90;;;;;;5017947;28;20021;-77
2021/06/04 04:39:37;;;;;;;36.97;27.80;;;20.70;99.90;;;;;;5020502;28;20477;-75
2021/06/04 04:42:07;;;;;;;36.05;28.27;;;20.70;99.90;;;;;;5018695;28;20530;-79
2021/06/04 04:44:34;;;;;;;35.17;26.25;;;20.60;99.90;;;;;;5019702;28;20474;-78
2021/06/04 04:47:06;;;;;;;34.22;27.65;;;20.70;99.90;;;;;;5012373;28;20057;-80
2021/06/04 04:49:32;;;;;;;33.80;26.48;;;20.70;99.90;;;;;;5018796;28;20044;-74
2021/06/04 04:51:58;;;;;;;37.85;28.23;;;20.60;99.90;;;;;;5014970;28;20034;-79
2021/06/04 04:54:24;;;;;;;31.15;25.63;;;20.70;99.90;;;;;;5020294;28;20471;-77
2021/06/04 04:56:50;;;;;;;30.95;24.92;;;20.70;99.90;;;;;;5020092;28;20492;-79
2021/06/04 04:59:16;;;;;;;34.95;24.40;;;20.70;99.90;;;;;;5019362;28;20045;-78
2021/06/04 05:01:43;;;;;;;30.92;26.27;;;20.70;99.90;;;;;;5015643;28;20113;-81
2021/06/04 05:04:08;;;;;;;35.63;26.67;;;20.70;99.90;;;;;;5015405;28;20022;-76
2021/06/04 05:06:35;;;;;;;34.40;26.58;;;20.60;99.90;;;;;;5020134;28;20492;-79
2021/06/04 05:09:02;;;;;;;33.95;26.38;;;20.70;99.90;;;;;;5015538;28;20044;-79
2021/06/04 05:11:28;;;;;;;31.58;25.05;;;20.70;99.90;;;;;;5020803;28;20029;-79
2021/06/04 05:13:54;;;;;;;33.75;25.30;;;20.70;99.90;;;;;;5023037;28;20033;-78
2021/06/04 05:16:19;;;;;;;36.08;26.40;;;20.70;99.90;;;;;;5017176;28;20496;-79
2021/06/04 05:18:46;;;;;;;33.20;24.38;;;20.80;99.90;;;;;;5023177;28;20120;-76
2021/06/04 05:21:15;;;;;;;31.17;24.85;;;20.80;99.90;;;;;;5020999;28;20040;-76
2021/06/04 05:23:41;;;;;;;36.03;25.80;;;20.80;99.90;;;;;;5015615;28;20037;-81
2021/06/04 05:26:07;;;;;;;35.35;23.48;;;20.80;99.90;;;;;;5020418;28;20033;-80
2021/06/04 05:28:33;;;;;;;31.45;22.70;;;20.80;99.90;;;;;;5018354;28;20028;-79
2021/06/04 05:31:04;;;;;;;32.95;22.90;;;20.80;99.90;;;;;;5020134;28;20029;-78
2021/06/04 05:33:34;;;;;;;32.90;23.85;;;20.80;99.90;;;;;;5021177;28;20129;-79
2021/06/04 05:36:08;;;;;;;33.38;25.83;;;20.80;99.90;;;;;;5018426;28;20037;-78
2021/06/04 05:38:34;;;;;;;36.58;23.17;;;20.80;99.90;;;;;;5021387;28;20100;-79
2021/06/04 05:41:00;;;;;;;28.08;22.27;;;20.90;99.90;;;;;;5022782;28;20528;-78
2021/06/04 05:43:33;;;;;;;26.90;21.27;;;20.90;99.90;;;;;;5019831;28;20492;-79
2021/06/04 05:45:59;;;;;;;31.33;24.08;;;20.90;99.90;;;;;;5022095;28;20029;-80
2021/06/04 05:48:26;;;;;;;27.17;22.15;;;21.00;99.90;;;;;;5025683;28;20026;-79
2021/06/04 05:50:57;;;;;;;33.05;22.77;;;21.10;99.90;;;;;;5018488;28;20026;-78
2021/06/04 05:53:28;;;;;;;31.77;23.48;;;21.10;99.90;;;;;;5018662;28;20025;-77
2021/06/04 05:55:54;;;;;;;27.13;20.80;;;21.10;99.90;;;;;;5019418;28;20033;-80
2021/06/04 05:58:21;;;;;;;25.08;20.92;;;21.20;99.90;;;;;;5022690;28;20030;-80
2021/06/04 06:00:50;;;;;;;26.33;19.23;;;21.20;99.90;;;;;;5016006;28;20030;-79
2021/06/04 06:03:21;;;;;;;25.92;20.42;;;21.30;99.90;;;;;;5020625;28;20037;-77
2021/06/04 06:05:47;;;;;;;33.50;22.70;;;21.20;99.90;;;;;;5019215;28;20030;-78
2021/06/04 06:08:13;;;;;;;26.08;21.00;;;21.10;99.90;;;;;;5022191;28;20030;-79
2021/06/04 06:10:39;;;;;;;24.33;18.95;;;21.20;99.90;;;;;;5017448;28;20021;-79
2021/06/04 06:13:05;;;;;;;29.80;21.77;;;21.30;99.90;;;;;;5017262;28;20069;-78
2021/06/04 06:15:31;;;;;;;26.50;18.80;;;21.30;99.90;;;;;;5019362;28;20450;-74
2021/06/04 06:17:57;;;;;;;21.35;18.55;;;21.40;99.90;;;;;;5020338;28;20075;-78
2021/06/04 06:20:26;;;;;;;28.10;19.77;;;21.40;99.90;;;;;;5023066;28;20034;-79
2021/06/04 06:22:53;;;;;;;25.60;19.17;;;21.50;99.90;;;;;;5019341;28;20149;-79
2021/06/04 06:25:24;;;;;;;26.20;19.27;;;21.30;99.90;;;;;;5018020;28;20037;-80
2021/06/04 06:27:50;;;;;;;24.88;18.65;;;21.20;99.90;;;;;;5019475;28;20061;-79
2021/06/04 06:30:19;;;;;;;21.10;16.92;;;21.30;99.90;;;;;;5017946;28;20065;-79
2021/06/04 06:32:45;;;;;;;24.23;17.05;;;21.30;99.90;;;;;;5016632;28;20048;-79
2021/06/04 06:35:12;;;;;;;22.98;16.55;;;21.30;99.90;;;;;;5024102;28;20203;-77
2021/06/04 06:37:38;;;;;;;21.10;14.63;;;21.30;99.90;;;;;;5017555;28;20570;-82
2021/06/04 06:40:07;;;;;;;16.75;14.02;;;21.40;99.90;;;;;;5024834;28;20088;-79
2021/06/04 06:42:33;;;;;;;22.90;15.73;;;21.60;99.90;;;;;;5019151;28;20089;-80
2021/06/04 06:44:59;;;;;;;17.38;13.10;;;21.60;99.90;;;;;;5022081;28;20101;-80
2021/06/04 06:47:25;;;;;;;20.15;14.05;;;21.70;99.90;;;;;;5020143;28;20044;-80
2021/06/04 06:49:50;;;;;;;22.67;15.77;;;21.90;99.90;;;;;;5024988;28;20030;-77
2021/06/04 06:52:16;;;;;;;19.80;14.05;;;22.00;99.90;;;;;;5026649;28;20032;-82
2021/06/04 06:54:43;;;;;;;24.25;15.40;;;22.10;99.90;;;;;;5017386;28;20112;-79
2021/06/04 06:57:09;;;;;;;17.25;15.30;;;22.20;99.90;;;;;;5017388;28;20079;-80
2021/06/04 06:59:35;;;;;;;22.63;14.13;;;22.30;99.90;;;;;;5017472;28;20037;-75
2021/06/04 07:02:04;;;;;;;17.73;13.52;;;22.30;99.90;;;;;;5018743;28;20017;-79
2021/06/04 07:04:30;;;;;;;17.83;13.80;;;22.50;99.90;;;;;;5018717;28;20420;-78
2021/06/04 07:06:56;;;;;;;16.85;12.32;;;22.50;99.90;;;;;;5020392;28;20359;-78
2021/06/04 07:09:24;;;;;;;15.88;11.25;;;22.60;99.90;;;;;;5021305;28;20026;-80
2021/06/04 07:11:54;;;;;;;17.40;13.05;;;22.60;99.90;;;;;;5016917;28;20066;-73
2021/06/04 07:14:25;;;;;;;17.38;13.20;;;22.60;99.90;;;;;;5017772;28;20505;-79
2021/06/04 07:16:51;;;;;;;13.65;11.68;;;22.60;99.90;;;;;;5016578;28;20057;-80
2021/06/04 07:19:17;;;;;;;17.67;13.57;;;22.50;99.90;;;;;;5020310;28;20032;-77
2021/06/04 07:21:45;;;;;;;13.25;11.40;;;22.60;99.90;;;;;;5018637;28;20033;-78
2021/06/04 07:24:14;;;;;;;17.08;13.02;;;22.60;99.90;;;;;;5019464;28;20014;-80
2021/06/04 07:26:46;;;;;;;22.02;14.15;;;22.80;99.90;;;;;;5018514;28;20037;-79
2021/06/04 07:29:13;;;;;;;22.00;15.55;;;22.90;99.90;;;;;;5023188;28;20018;-78
2021/06/04 07:31:39;;;;;;;24.48;18.05;;;23.10;99.90;;;;;;5025969;28;20029;-81
2021/06/04 07:34:05;;;;;;;27.38;18.40;;;23.10;99.90;;;;;;5020629;28;20032;-75
2021/06/04 07:36:37;;;;;;;25.63;20.05;;;23.20;99.90;;;;;;5019552;28;20110;-81
2021/06/04 07:39:09;;;;;;;27.50;20.33;;;23.20;99.90;;;;;;5024367;28;20043;-78
2021/06/04 07:41:35;;;;;;;25.90;18.98;;;23.30;99.90;;;;;;5018977;28;20108;-80
2021/06/04 07:44:02;;;;;;;25.23;18.17;;;23.20;99.90;;;;;;5020178;28;20542;-80
2021/06/04 07:46:28;;;;;;;24.60;18.00;;;23.30;99.90;;;;;;5018218;28;20032;-80
2021/06/04 07:48:54;;;;;;;28.17;19.73;;;23.40;99.90;;;;;;5016790;28;20121;-81
2021/06/04 07:51:24;;;;;;;23.83;18.63;;;23.40;99.90;;;;;;5014884;28;20401;-81
2021/06/04 07:53:49;;;;;;;21.90;15.85;;;23.50;99.90;;;;;;5018220;28;20084;-80
2021/06/04 07:56:17;;;;;;;21.77;15.35;;;23.60;99.90;;;;;;5018204;28;20422;-79
2021/06/04 07:58:47;;;;;;;22.00;17.85;;;23.80;99.90;;;;;;5020928;28;20079;-79
2021/06/04 08:01:14;;;;;;;22.10;18.30;;;23.80;99.90;;;;;;5019923;28;20049;-77
2021/06/04 08:03:41;;;;;;;25.48;18.67;;;23.80;99.90;;;;;;5003202;28;20030;-80
2021/06/04 08:06:09;;;;;;;24.23;19.88;;;23.80;99.90;;;;;;5017167;28;20072;-79
2021/06/04 08:08:35;;;;;;;30.42;21.67;;;23.90;99.90;;;;;;5010119;28;20494;-76
2021/06/04 08:11:03;;;;;;;26.85;20.05;;;23.80;99.90;;;;;;5015372;28;20028;-78
2021/06/04 08:13:29;;;;;;;26.10;19.42;;;23.90;99.90;;;;;;5015759;28;20025;-79
2021/06/04 08:16:02;;;;;;;25.77;19.40;;;24.00;99.90;;;;;;5015595;28;20022;-71
2021/06/04 08:18:30;;;;;;;34.38;21.35;;;24.10;99.90;;;;;;5016847;28;20022;-80
2021/06/04 08:20:57;;;;;;;25.40;20.23;;;24.20;99.90;;;;;;5016263;28;20554;-79
2021/06/04 08:23:31;;;;;;;23.88;20.85;;;24.20;99.90;;;;;;5011051;28;20113;-71
2021/06/04 08:25:58;;;;;;;29.85;21.48;;;24.20;99.90;;;;;;5018409;28;20022;-81
2021/06/04 08:28:27;;;;;;;29.67;20.73;;;24.20;99.90;;;;;;5018414;28;20083;-81
2021/06/04 08:30:53;;;;;;;26.02;18.88;;;24.30;99.90;;;;;;5013048;28;20033;-79
2021/06/04 08:33:25;;;;;;;30.45;22.45;;;24.40;99.90;;;;;;5012834;28;20026;-81
2021/06/04 08:35:51;;;;;;;33.33;22.13;;;24.30;99.90;;;;;;5018556;28;20390;-81
2021/06/04 08:38:17;;;;;;;27.38;22.08;;;24.40;99.90;;;;;;5016392;28;20030;-79
2021/06/04 08:40:44;;;;;;;29.88;21.55;;;24.50;99.90;;;;;;5018801;28;20045;-80
2021/06/04 08:43:30;;;;;;;29.20;20.67;;;24.70;99.90;;;;;;5017957;28;20030;-80
2021/06/04 08:46:22;;;;;;;28.30;21.10;;;24.90;99.90;;;;;;5019052;28;20108;-79
2021/06/04 08:49:28;;;;;;;33.08;22.55;;;25.00;99.90;;;;;;5021020;28;20061;-81
2021/06/04 08:52:34;;;;;;;33.75;24.13;;;24.90;99.90;;;;;;4950327;28;20043;-79
2021/06/04 08:55:06;;;;;;;27.70;21.48;;;25.20;99.90;;;;;;5019518;28;20030;-81
2021/06/04 08:58:02;;;;;;;33.65;22.08;;;25.30;99.90;;;;;;5026053;28;20033;-81
2021/06/04 09:00:32;;;;;;;32.95;25.52;;;25.50;99.90;;;;;;5015463;28;20414;-79
2021/06/04 09:03:25;;;;;;;31.17;24.52;;;25.40;99.90;;;;;;5013995;28;20513;-77
2021/06/04 09:06:02;;;;;;;38.83;25.80;;;25.60;99.90;;;;;;5016325;28;20554;-70
2021/06/04 09:08:39;;;;;;;32.55;24.45;;;25.80;99.90;;;;;;5017520;28;20021;-70
2021/06/04 09:11:14;;;;;;;36.33;26.08;;;25.90;99.90;;;;;;5018199;28;20113;-69
2021/06/04 09:13:39;;;;;;;31.55;24.45;;;25.90;99.90;;;;;;5019082;28;20483;-71
2021/06/04 09:16:23;;;;;;;31.98;25.25;;;26.10;99.90;;;;;;5011568;28;20026;-79
2021/06/04 09:19:05;;;;;;;31.85;26.10;;;26.10;99.90;;;;;;5018769;28;20037;-69
2021/06/04 09:21:33;;;;;;;33.15;27.88;;;26.20;99.90;;;;;;5013179;28;20509;-71
2021/06/04 09:24:02;;;;;;;37.83;27.23;;;26.30;99.90;;;;;;5013126;28;20520;-70
2021/06/04 09:26:29;;;;;;;36.10;29.27;;;26.50;99.90;;;;;;5016836;28;20026;-70
2021/06/04 09:29:04;;;;;;;38.05;27.63;;;26.50;99.90;;;;;;5019170;28;20060;-70
2021/06/04 09:31:49;;;;;;;33.55;27.05;;;26.60;99.90;;;;;;5018597;28;20446;-70
2021/06/04 09:34:26;;;;;;;31.45;25.08;;;26.80;99.90;;;;;;5019051;28;20667;-70
2021/06/04 09:36:55;;;;;;;32.45;24.08;;;27.00;99.90;;;;;;5015530;28;20034;-71
2021/06/04 09:39:33;;;;;;;37.38;26.33;;;27.20;99.90;;;;;;5011071;28;20113;-70
2021/06/04 09:42:27;;;;;;;40.00;28.50;;;27.00;99.90;;;;;;5017050;28;20026;-71
2021/06/04 09:45:01;;;;;;;38.33;29.65;;;27.00;99.90;;;;;;5016883;28;20382;-69
2021/06/04 09:47:47;;;;;;;35.70;29.25;;;27.00;99.90;;;;;;5015987;28;20386;-70
2021/06/04 09:50:40;;;;;;;38.15;29.13;;;26.90;99.90;;;;;;5015136;28;20026;-70
2021/06/04 09:53:10;;;;;;;44.63;31.80;;;27.20;99.90;;;;;;5016217;28;20033;-70
2021/06/04 09:55:43;;;;;;;37.75;31.58;;;27.50;99.90;;;;;;5015113;28;20067;-71
2021/06/04 09:58:21;;;;;;;38.03;29.17;;;27.70;99.90;;;;;;5016263;28;20056;-70
2021/06/04 10:01:10;;;;;;;39.05;29.92;;;27.90;99.90;;;;;;5013588;28;20045;-75
2021/06/04 10:03:46;;;;;;;36.00;28.95;;;28.20;99.90;;;;;;5018913;28;20045;-75
2021/06/04 10:06:38;;;;;;;33.80;27.52;;;28.30;99.90;;;;;;5013047;28;20033;-81
2021/06/04 10:09:32;;;;;;;40.03;29.83;;;28.30;99.90;;;;;;5018621;28;20485;-78
2021/06/04 10:12:03;;;;;;;42.72;33.30;;;28.40;99.90;;;;;;5015440;28;20125;-81
2021/06/04 10:19:57;;;;;;;41.97;34.45;;;28.20;99.90;;;;;;5022235;28;20061;-77
2021/06/04 10:22:34;;;;;;;43.10;32.25;;;28.00;99.90;;;;;;5019767;28;20065;-81
2021/06/04 10:25:00;;;;;;;38.08;31.30;;;28.20;99.90;;;;;;5016330;28;20060;-82
2021/06/04 10:27:27;;;;;;;41.40;32.42;;;28.20;99.90;;;;;;5019975;28;20054;-79
2021/06/04 10:30:16;;;;;;;37.97;30.58;;;28.20;99.90;;;;;;5020652;28;20030;-82
2021/06/04 10:32:54;;;;;;;38.53;31.02;;;28.10;99.90;;;;;;5016800;28;20064;-74
2021/06/04 10:35:45;;;;;;;42.10;31.63;;;28.30;99.90;;;;;;5021053;28;20025;-77
2021/06/04 10:38:36;;;;;;;42.75;32.83;;;28.40;99.90;;;;;;5018458;28;20026;-75
2021/06/04 10:41:09;;;;;;;38.75;32.78;;;28.60;99.90;;;;;;5017383;28;20091;-77
2021/06/04 10:43:57;;;;;;;35.53;30.63;;;28.30;99.90;;;;;;5014510;28;21235;-80
2021/06/04 10:46:35;;;;;;;33.58;27.63;;;28.30;99.90;;;;;;5017126;28;20029;-80
2021/06/04 10:49:15;;;;;;;33.85;27.05;;;28.60;99.60;;;;;;5006746;28;20054;-79
2021/06/04 10:52:20;;;;;;;27.88;22.58;;;28.70;97.90;;;;;;5015573;28;20033;-81
2021/06/04 10:55:27;;;;;;;38.45;24.55;;;28.50;99.20;;;;;;4998360;28;20104;-78
2021/06/04 10:58:22;;;;;;;27.70;23.85;;;28.40;99.30;;;;;;5006581;28;20053;-80
2021/06/04 11:00:54;;;;;;;30.30;25.23;;;28.50;99.90;;;;;;4997242;28;20052;-81
2021/06/04 11:03:33;;;;;;;31.10;25.77;;;28.50;99.60;;;;;;5018808;28;20065;-79
2021/06/04 11:06:23;;;;;;;33.45;23.95;;;28.50;99.90;;;;;;5016410;28;20030;-71
2021/06/04 11:09:06;;;;;;;32.95;27.13;;;28.50;99.90;;;;;;5017497;28;20108;-76
2021/06/04 11:11:38;;;;;;;33.38;25.55;;;28.80;99.30;;;;;;5018452;28;20057;-77
2021/06/04 11:14:30;;;;;;;30.73;26.98;;;28.70;99.30;;;;;;5018566;28;20025;-78
2021/06/04 11:17:31;;;;;;;26.00;21.13;;;28.50;99.10;;;;;;5018159;28;20454;-75
2021/06/04 11:20:10;;;;;;;31.98;24.10;;;28.30;99.00;;;;;;5019353;28;20037;-75
2021/06/04 11:23:02;;;;;;;27.33;24.42;;;28.00;99.70;;;;;;5017931;28;20041;-80
2021/06/04 11:25:56;;;;;;;27.33;21.98;;;27.80;99.30;;;;;;5016198;28;20104;-75
2021/06/04 11:28:41;;;;;;;30.40;25.30;;;27.70;99.80;;;;;;5020904;28;20022;-78
2021/06/04 11:31:15;;;;;;;25.40;22.45;;;28.20;99.80;;;;;;5020953;28;20052;-74
2021/06/04 11:33:41;;;;;;;31.95;24.95;;;27.90;99.90;;;;;;5014989;28;20017;-80
2021/06/04 11:36:20;;;;;;;27.55;22.63;;;27.90;99.80;;;;;;5017077;28;20441;-71
2021/06/04 11:39:08;;;;;;;19.70;17.60;;;28.00;99.90;;;;;;5019654;28;20026;-77
2021/06/04 11:41:49;;;;;;;24.73;22.13;;;28.00;99.90;;;;;;5015626;28;20033;-73
2021/06/04 11:44:41;;;;;;;32.67;25.52;;;28.00;99.90;;;;;;5014645;28;20123;-81
2021/06/04 11:47:15;;;;;;;24.05;20.85;;;28.00;99.80;;;;;;5016252;28;20018;-80
2021/06/04 11:49:53;;;;;;;29.23;25.20;;;28.00;99.90;;;;;;5016123;28;20025;-88
2021/06/04 11:52:35;;;;;;;29.77;22.35;;;28.00;99.80;;;;;;5019559;28;20040;-84
2021/06/04 11:55:17;;;;;;;28.50;24.25;;;28.00;99.90;;;;;;5016927;28;20433;-79
2021/06/04 11:57:56;;;;;;;30.90;24.83;;;27.90;99.90;;;;;;5015415;28;20028;-69
2021/06/04 12:00:24;;;;;;;28.70;24.10;;;27.80;99.90;;;;;;5018124;28;20072;-76
2021/06/04 12:03:08;;;;;;;34.55;26.70;;;28.30;99.90;;;;;;5018610;28;20039;-69
2021/06/04 12:05:44;;;;;;;36.60;27.05;;;28.60;99.90;;;;;;5013646;28;20116;-68
2021/06/04 12:08:25;;;;;;;33.63;25.85;;;28.80;99.90;;;;;;5021076;28;20021;-69
2021/06/04 12:10:53;;;;;;;26.27;22.13;;;28.90;99.90;;;;;;5013423;28;20108;-72
2021/06/04 12:13:47;;;;;;;32.03;25.27;;;29.20;99.50;;;;;;5017020;28;20458;-69
2021/06/04 12:16:25;;;;;;;36.78;26.65;;;29.30;99.30;;;;;;5015591;28;20113;-69
2021/06/04 12:19:09;;;;;;;27.05;19.95;;;29.40;99.00;;;;;;5014755;28;20474;-70
2021/06/04 12:21:38;;;;;;;30.75;25.10;;;29.60;98.50;;;;;;5019129;28;20025;-68
2021/06/04 12:24:24;;;;;;;25.60;22.73;;;29.50;98.80;;;;;;5017164;28;20029;-69
2021/06/04 12:26:52;;;;;;;32.13;21.50;;;29.60;98.80;;;;;;5001230;28;20068;-69
2021/06/04 12:29:24;;;;;;;28.95;20.80;;;29.80;98.30;;;;;;5015256;28;20067;-74
2021/06/04 12:32:00;;;;;;;22.95;18.80;;;29.80;97.10;;;;;;5014027;28;20109;-73
2021/06/04 12:34:32;;;;;;;19.75;17.30;;;29.90;97.10;;;;;;5015150;28;20537;-69
2021/06/04 12:37:24;;;;;;;19.10;15.05;;;29.90;98.20;;;;;;5017586;28;20017;-69
2021/06/04 12:40:18;;;;;;;17.20;13.77;;;29.90;97.60;;;;;;5013257;28;20042;-70
2021/06/04 12:42:49;;;;;;;18.20;15.45;;;30.00;97.70;;;;;;5017367;28;20120;-71
2021/06/04 12:45:15;;;;;;;15.02;13.38;;;29.90;96.90;;;;;;5014906;28;20034;-68
2021/06/04 12:47:48;;;;;;;17.77;14.55;;;29.90;97.30;;;;;;5015288;28;20550;-71
2021/06/04 12:50:16;;;;;;;16.63;13.27;;;29.80;96.70;;;;;;5022052;28;20033;-69
2021/06/04 12:52:43;;;;;;;15.90;14.23;;;29.90;97.90;;;;;;5017827;28;20430;-72
2021/06/04 12:55:28;;;;;;;22.55;16.75;;;29.80;97.60;;;;;;5019580;28;20025;-70
2021/06/04 12:57:53;;;;;;;24.67;19.13;;;29.70;96.90;;;;;;5020344;28;20034;-69
2021/06/04 13:00:30;;;;;;;19.98;16.55;;;29.40;96.50;;;;;;5019762;28;20443;-69